sensor_id;sensor_type;location;lat;lon;timestamp;temperature;humidity
69328;DHT22;56472;52.114;5.492;2023-06-26T00:01:40;26.40;60.60
69328;DHT22;56472;52.114;5.492;2023-06-26T00:04:07;26.40;60.60
69328;DHT22;56472;52.114;5.492;2023-06-26T00:06:34;26.40;60.60
69328;DHT22;56472;52.114;5.492;2023-06-26T00:09:05;26.40;60.60
69328;DHT22;56472;52.114;5.492;2023-06-26T00:11:32;26.40;60.60
69328;DHT22;56472;52.114;5.492;2023-06-26T00:14:00;26.40;60.60
69328;DHT22;56472;52.114;5.492;2023-06-26T00:16:27;26.40;60.70
69328;DHT22;56472;52.114;5.492;2023-06-26T00:18:54;26.40;60.70
69328;DHT22;56472;52.114;5.492;2023-06-26T00:21:21;26.40;60.80
69328;DHT22;56472;52.114;5.492;2023-06-26T00:23:48;26.40;60.80
69328;DHT22;56472;52.114;5.492;2023-06-26T00:26:15;26.40;60.90
69328;DHT22;56472;52.114;5.492;2023-06-26T00:28:42;26.40;60.80
69328;DHT22;56472;52.114;5.492;2023-06-26T00:31:09;26.40;61.00
69328;DHT22;56472;52.114;5.492;2023-06-26T00:33:36;26.30;61.00
69328;DHT22;56472;52.114;5.492;2023-06-26T00:36:03;26.30;61.10
69328;DHT22;56472;52.114;5.492;2023-06-26T00:38:30;26.30;61.10
69328;DHT22;56472;52.114;5.492;2023-06-26T00:40:57;26.30;60.90
69328;DHT22;56472;52.114;5.492;2023-06-26T00:43:24;26.30;60.80
69328;DHT22;56472;52.114;5.492;2023-06-26T00:45:51;26.30;60.80
69328;DHT22;56472;52.114;5.492;2023-06-26T00:48:19;26.30;60.70
69328;DHT22;56472;52.114;5.492;2023-06-26T00:50:46;26.30;60.70
69328;DHT22;56472;52.114;5.492;2023-06-26T00:53:13;26.30;60.50
69328;DHT22;56472;52.114;5.492;2023-06-26T00:55:40;26.30;60.40
69328;DHT22;56472;52.114;5.492;2023-06-26T00:58:08;26.30;60.40
69328;DHT22;56472;52.114;5.492;2023-06-26T01:00:35;26.30;60.30
69328;DHT22;56472;52.114;5.492;2023-06-26T01:03:03;26.30;60.20
69328;DHT22;56472;52.114;5.492;2023-06-26T01:05:30;26.30;60.20
69328;DHT22;56472;52.114;5.492;2023-06-26T01:07:58;26.30;60.20
69328;DHT22;56472;52.114;5.492;2023-06-26T01:10:25;26.30;60.20
69328;DHT22;56472;52.114;5.492;2023-06-26T01:12:55;26.30;60.20
69328;DHT22;56472;52.114;5.492;2023-06-26T01:15:23;26.30;61.20
69328;DHT22;56472;52.114;5.492;2023-06-26T01:17:51;26.20;60.20
69328;DHT22;56472;52.114;5.492;2023-06-26T01:20:19;26.20;60.20
69328;DHT22;56472;52.114;5.492;2023-06-26T01:28:38;26.20;60.40
69328;DHT22;56472;52.114;5.492;2023-06-26T01:31:06;26.10;60.40
69328;DHT22;56472;52.114;5.492;2023-06-26T01:33:34;26.10;60.40
69328;DHT22;56472;52.114;5.492;2023-06-26T01:36:02;26.20;60.60
69328;DHT22;56472;52.114;5.492;2023-06-26T01:38:29;26.20;60.80
69328;DHT22;56472;52.114;5.492;2023-06-26T01:40:56;26.20;60.90
69328;DHT22;56472;52.114;5.492;2023-06-26T01:46:12;26.10;60.90
69328;DHT22;56472;52.114;5.492;2023-06-26T01:48:52;26.10;61.00
69328;DHT22;56472;52.114;5.492;2023-06-26T01:51:27;26.10;61.10
69328;DHT22;56472;52.114;5.492;2023-06-26T01:53:57;26.10;61.10
69328;DHT22;56472;52.114;5.492;2023-06-26T01:56:26;26.10;61.10
69328;DHT22;56472;52.114;5.492;2023-06-26T01:58:55;26.10;61.10
69328;DHT22;56472;52.114;5.492;2023-06-26T02:01:23;26.10;61.10
69328;DHT22;56472;52.114;5.492;2023-06-26T02:03:50;26.10;61.10
69328;DHT22;56472;52.114;5.492;2023-06-26T02:06:17;26.10;61.10
69328;DHT22;56472;52.114;5.492;2023-06-26T02:08:44;26.10;61.10
69328;DHT22;56472;52.114;5.492;2023-06-26T02:11:11;26.10;61.00
69328;DHT22;56472;52.114;5.492;2023-06-26T02:13:39;26.10;61.00
69328;DHT22;56472;52.114;5.492;2023-06-26T02:16:06;26.10;60.90
69328;DHT22;56472;52.114;5.492;2023-06-26T02:18:33;26.10;60.80
69328;DHT22;56472;52.114;5.492;2023-06-26T02:21:00;26.00;60.60
69328;DHT22;56472;52.114;5.492;2023-06-26T02:23:28;26.00;60.60
69328;DHT22;56472;52.114;5.492;2023-06-26T02:25:56;26.00;60.50
69328;DHT22;56472;52.114;5.492;2023-06-26T02:28:23;26.00;60.40
69328;DHT22;56472;52.114;5.492;2023-06-26T02:30:50;26.00;60.40
69328;DHT22;56472;52.114;5.492;2023-06-26T02:33:17;26.00;60.30
69328;DHT22;56472;52.114;5.492;2023-06-26T02:35:47;26.00;60.30
69328;DHT22;56472;52.114;5.492;2023-06-26T02:38:16;26.00;60.20
69328;DHT22;56472;52.114;5.492;2023-06-26T02:40:45;26.00;60.10
69328;DHT22;56472;52.114;5.492;2023-06-26T02:43:14;26.00;60.20
69328;DHT22;56472;52.114;5.492;2023-06-26T02:45:41;26.00;60.20
69328;DHT22;56472;52.114;5.492;2023-06-26T02:48:08;26.00;60.20
69328;DHT22;56472;52.114;5.492;2023-06-26T02:50:35;26.00;60.20
69328;DHT22;56472;52.114;5.492;2023-06-26T02:53:06;26.00;60.20
69328;DHT22;56472;52.114;5.492;2023-06-26T02:55:34;26.00;60.20
69328;DHT22;56472;52.114;5.492;2023-06-26T02:58:01;25.90;60.10
69328;DHT22;56472;52.114;5.492;2023-06-26T03:00:28;25.90;60.10
69328;DHT22;56472;52.114;5.492;2023-06-26T03:02:59;25.90;60.10
69328;DHT22;56472;52.114;5.492;2023-06-26T03:05:27;25.90;60.20
69328;DHT22;56472;52.114;5.492;2023-06-26T03:07:55;25.90;60.20
69328;DHT22;56472;52.114;5.492;2023-06-26T03:10:22;25.90;60.30
69328;DHT22;56472;52.114;5.492;2023-06-26T03:12:49;25.90;60.30
69328;DHT22;56472;52.114;5.492;2023-06-26T03:15:17;25.90;60.30
69328;DHT22;56472;52.114;5.492;2023-06-26T03:17:46;25.90;60.30
69328;DHT22;56472;52.114;5.492;2023-06-26T03:20:20;25.90;60.30
69328;DHT22;56472;52.114;5.492;2023-06-26T03:22:57;25.90;60.30
69328;DHT22;56472;52.114;5.492;2023-06-26T03:25:24;25.90;60.30
69328;DHT22;56472;52.114;5.492;2023-06-26T03:28:08;25.90;60.30
69328;DHT22;56472;52.114;5.492;2023-06-26T03:30:35;25.90;60.30
69328;DHT22;56472;52.114;5.492;2023-06-26T03:33:03;25.90;60.30
69328;DHT22;56472;52.114;5.492;2023-06-26T03:35:30;25.90;60.30
69328;DHT22;56472;52.114;5.492;2023-06-26T03:37:58;25.90;60.30
69328;DHT22;56472;52.114;5.492;2023-06-26T03:40:27;25.90;60.30
69328;DHT22;56472;52.114;5.492;2023-06-26T03:42:54;25.90;60.30
69328;DHT22;56472;52.114;5.492;2023-06-26T03:45:21;25.90;60.30
69328;DHT22;56472;52.114;5.492;2023-06-26T03:47:48;25.90;60.40
69328;DHT22;56472;52.114;5.492;2023-06-26T03:50:16;25.90;60.40
69328;DHT22;56472;52.114;5.492;2023-06-26T03:52:43;25.90;60.40
69328;DHT22;56472;52.114;5.492;2023-06-26T03:55:12;25.90;60.40
69328;DHT22;56472;52.114;5.492;2023-06-26T03:57:39;25.90;60.40
69328;DHT22;56472;52.114;5.492;2023-06-26T04:00:09;25.90;60.40
69328;DHT22;56472;52.114;5.492;2023-06-26T04:02:40;25.90;60.50
69328;DHT22;56472;52.114;5.492;2023-06-26T04:05:08;25.90;60.50
69328;DHT22;56472;52.114;5.492;2023-06-26T04:07:36;25.90;60.50
69328;DHT22;56472;52.114;5.492;2023-06-26T04:10:06;26.00;60.60
69328;DHT22;56472;52.114;5.492;2023-06-26T04:12:33;25.90;60.60
69328;DHT22;56472;52.114;5.492;2023-06-26T04:15:00;26.00;60.60
69328;DHT22;56472;52.114;5.492;2023-06-26T04:17:27;25.90;60.50
69328;DHT22;56472;52.114;5.492;2023-06-26T04:19:54;25.90;60.50
69328;DHT22;56472;52.114;5.492;2023-06-26T04:22:21;25.90;60.40
69328;DHT22;56472;52.114;5.492;2023-06-26T04:24:48;25.90;60.50
69328;DHT22;56472;52.114;5.492;2023-06-26T04:27:16;26.00;60.50
69328;DHT22;56472;52.114;5.492;2023-06-26T04:29:43;25.90;60.30
69328;DHT22;56472;52.114;5.492;2023-06-26T04:32:10;25.90;60.30
69328;DHT22;56472;52.114;5.492;2023-06-26T04:34:37;26.00;60.30
69328;DHT22;56472;52.114;5.492;2023-06-26T04:37:07;26.00;60.30
69328;DHT22;56472;52.114;5.492;2023-06-26T04:39:37;26.00;60.20
69328;DHT22;56472;52.114;5.492;2023-06-26T04:42:05;26.00;61.00
69328;DHT22;56472;52.114;5.492;2023-06-26T04:44:33;26.00;60.10
69328;DHT22;56472;52.114;5.492;2023-06-26T04:47:00;26.00;60.00
69328;DHT22;56472;52.114;5.492;2023-06-26T04:49:27;26.00;59.80
69328;DHT22;56472;52.114;5.492;2023-06-26T04:51:55;26.00;59.80
69328;DHT22;56472;52.114;5.492;2023-06-26T04:54:22;26.00;59.80
69328;DHT22;56472;52.114;5.492;2023-06-26T04:56:53;26.00;59.70
69328;DHT22;56472;52.114;5.492;2023-06-26T04:59:20;26.00;59.70
69328;DHT22;56472;52.114;5.492;2023-06-26T05:01:47;26.00;59.70
69328;DHT22;56472;52.114;5.492;2023-06-26T05:04:15;26.00;59.60
69328;DHT22;56472;52.114;5.492;2023-06-26T05:06:43;26.00;59.60
69328;DHT22;56472;52.114;5.492;2023-06-26T05:09:10;26.00;59.60
69328;DHT22;56472;52.114;5.492;2023-06-26T05:11:37;26.00;59.50
69328;DHT22;56472;52.114;5.492;2023-06-26T05:14:05;26.00;59.40
69328;DHT22;56472;52.114;5.492;2023-06-26T05:16:34;26.00;59.30
69328;DHT22;56472;52.114;5.492;2023-06-26T05:19:01;26.00;59.20
69328;DHT22;56472;52.114;5.492;2023-06-26T05:21:29;26.00;59.20
69328;DHT22;56472;52.114;5.492;2023-06-26T05:23:57;26.00;59.10
69328;DHT22;56472;52.114;5.492;2023-06-26T05:26:25;26.00;58.90
69328;DHT22;56472;52.114;5.492;2023-06-26T05:28:53;26.00;58.90
69328;DHT22;56472;52.114;5.492;2023-06-26T05:31:20;26.00;58.80
69328;DHT22;56472;52.114;5.492;2023-06-26T05:33:49;26.00;58.70
69328;DHT22;56472;52.114;5.492;2023-06-26T05:36:16;26.00;58.70
69328;DHT22;56472;52.114;5.492;2023-06-26T05:38:45;26.00;58.70
69328;DHT22;56472;52.114;5.492;2023-06-26T05:41:12;26.00;58.70
69328;DHT22;56472;52.114;5.492;2023-06-26T05:43:39;26.00;58.70
69328;DHT22;56472;52.114;5.492;2023-06-26T05:46:06;26.00;58.60
69328;DHT22;56472;52.114;5.492;2023-06-26T05:48:33;26.00;58.60
69328;DHT22;56472;52.114;5.492;2023-06-26T05:51:00;26.00;58.60
69328;DHT22;56472;52.114;5.492;2023-06-26T05:53:27;26.00;58.60
69328;DHT22;56472;52.114;5.492;2023-06-26T05:55:57;26.00;58.60
69328;DHT22;56472;52.114;5.492;2023-06-26T05:58:26;26.00;58.60
69328;DHT22;56472;52.114;5.492;2023-06-26T06:00:54;26.00;58.60
69328;DHT22;56472;52.114;5.492;2023-06-26T06:03:21;26.00;58.50
69328;DHT22;56472;52.114;5.492;2023-06-26T06:05:48;26.00;58.50
69328;DHT22;56472;52.114;5.492;2023-06-26T06:08:15;26.00;58.50
69328;DHT22;56472;52.114;5.492;2023-06-26T06:10:42;26.00;58.50
69328;DHT22;56472;52.114;5.492;2023-06-26T06:13:09;26.00;58.40
69328;DHT22;56472;52.114;5.492;2023-06-26T06:15:36;26.00;58.40
69328;DHT22;56472;52.114;5.492;2023-06-26T06:18:03;26.00;58.30
69328;DHT22;56472;52.114;5.492;2023-06-26T06:20:30;26.00;58.20
69328;DHT22;56472;52.114;5.492;2023-06-26T06:22:57;26.00;58.00
69328;DHT22;56472;52.114;5.492;2023-06-26T06:25:24;26.00;57.70
69328;DHT22;56472;52.114;5.492;2023-06-26T06:27:51;26.00;57.30
69328;DHT22;56472;52.114;5.492;2023-06-26T06:30:18;26.00;57.00
69328;DHT22;56472;52.114;5.492;2023-06-26T06:33:01;26.10;56.90
69328;DHT22;56472;52.114;5.492;2023-06-26T06:35:29;26.00;56.70
69328;DHT22;56472;52.114;5.492;2023-06-26T06:37:56;26.00;56.80
69328;DHT22;56472;52.114;5.492;2023-06-26T06:40:23;26.00;56.90
69328;DHT22;56472;52.114;5.492;2023-06-26T06:42:51;26.10;57.00
69328;DHT22;56472;52.114;5.492;2023-06-26T06:45:19;26.10;57.00
69328;DHT22;56472;52.114;5.492;2023-06-26T06:47:46;26.10;57.00
69328;DHT22;56472;52.114;5.492;2023-06-26T06:50:13;26.10;56.90
69328;DHT22;56472;52.114;5.492;2023-06-26T06:52:42;26.00;56.70
69328;DHT22;56472;52.114;5.492;2023-06-26T06:55:10;26.10;56.70
69328;DHT22;56472;52.114;5.492;2023-06-26T06:57:38;26.10;57.60
69328;DHT22;56472;52.114;5.492;2023-06-26T07:00:07;26.10;56.60
69328;DHT22;56472;52.114;5.492;2023-06-26T07:02:39;26.10;56.60
69328;DHT22;56472;52.114;5.492;2023-06-26T07:05:06;26.10;56.60
69328;DHT22;56472;52.114;5.492;2023-06-26T07:07:34;26.10;56.70
69328;DHT22;56472;52.114;5.492;2023-06-26T07:10:14;26.10;56.70
69328;DHT22;56472;52.114;5.492;2023-06-26T07:12:41;26.10;56.70
69328;DHT22;56472;52.114;5.492;2023-06-26T07:15:08;26.10;56.70
69328;DHT22;56472;52.114;5.492;2023-06-26T07:17:35;26.10;56.60
69328;DHT22;56472;52.114;5.492;2023-06-26T07:20:05;26.10;56.60
69328;DHT22;56472;52.114;5.492;2023-06-26T07:22:37;26.20;56.70
69328;DHT22;56472;52.114;5.492;2023-06-26T07:25:04;26.20;56.70
69328;DHT22;56472;52.114;5.492;2023-06-26T07:27:39;26.20;56.80
69328;DHT22;56472;52.114;5.492;2023-06-26T07:30:07;26.20;56.80
69328;DHT22;56472;52.114;5.492;2023-06-26T07:32:36;26.20;56.70
69328;DHT22;56472;52.114;5.492;2023-06-26T07:35:03;26.20;56.90
69328;DHT22;56472;52.114;5.492;2023-06-26T07:37:31;26.30;57.10
69328;DHT22;56472;52.114;5.492;2023-06-26T07:39:58;26.20;57.20
69328;DHT22;56472;52.114;5.492;2023-06-26T07:42:25;26.20;57.20
69328;DHT22;56472;52.114;5.492;2023-06-26T07:44:52;26.30;57.20
69328;DHT22;56472;52.114;5.492;2023-06-26T07:47:19;26.30;57.10
69328;DHT22;56472;52.114;5.492;2023-06-26T07:49:46;26.30;57.00
69328;DHT22;56472;52.114;5.492;2023-06-26T07:52:13;26.20;56.80
69328;DHT22;56472;52.114;5.492;2023-06-26T07:54:41;26.20;57.00
69328;DHT22;56472;52.114;5.492;2023-06-26T07:57:08;26.20;57.20
69328;DHT22;56472;52.114;5.492;2023-06-26T07:59:35;26.30;57.40
69328;DHT22;56472;52.114;5.492;2023-06-26T08:02:03;26.30;57.50
69328;DHT22;56472;52.114;5.492;2023-06-26T08:04:30;26.30;57.50
69328;DHT22;56472;52.114;5.492;2023-06-26T08:07:00;26.30;57.50
69328;DHT22;56472;52.114;5.492;2023-06-26T08:09:28;26.30;57.50
69328;DHT22;56472;52.114;5.492;2023-06-26T08:11:55;26.30;57.50
69328;DHT22;56472;52.114;5.492;2023-06-26T08:14:23;26.40;57.50
69328;DHT22;56472;52.114;5.492;2023-06-26T08:16:50;26.40;57.50
69328;DHT22;56472;52.114;5.492;2023-06-26T08:19:17;26.40;57.40
69328;DHT22;56472;52.114;5.492;2023-06-26T08:21:46;26.40;57.30
69328;DHT22;56472;52.114;5.492;2023-06-26T08:24:13;26.40;57.30
69328;DHT22;56472;52.114;5.492;2023-06-26T08:26:44;26.40;57.20
69328;DHT22;56472;52.114;5.492;2023-06-26T08:29:11;26.40;57.10
69328;DHT22;56472;52.114;5.492;2023-06-26T08:31:39;26.40;56.90
69328;DHT22;56472;52.114;5.492;2023-06-26T08:34:08;26.50;56.90
69328;DHT22;56472;52.114;5.492;2023-06-26T08:36:34;26.50;56.90
69328;DHT22;56472;52.114;5.492;2023-06-26T08:39:02;26.50;56.90
69328;DHT22;56472;52.114;5.492;2023-06-26T08:41:29;26.60;56.90
69328;DHT22;56472;52.114;5.492;2023-06-26T08:43:57;26.60;56.80
69328;DHT22;56472;52.114;5.492;2023-06-26T08:46:24;26.60;56.60
69328;DHT22;56472;52.114;5.492;2023-06-26T08:49:01;26.70;56.50
69328;DHT22;56472;52.114;5.492;2023-06-26T08:51:33;26.70;56.30
69328;DHT22;56472;52.114;5.492;2023-06-26T08:54:08;26.70;55.80
69328;DHT22;56472;52.114;5.492;2023-06-26T08:56:39;26.70;55.50
69328;DHT22;56472;52.114;5.492;2023-06-26T08:59:07;26.60;55.00
69328;DHT22;56472;52.114;5.492;2023-06-26T09:01:37;26.70;55.00
69328;DHT22;56472;52.114;5.492;2023-06-26T09:04:05;26.70;54.90
69328;DHT22;56472;52.114;5.492;2023-06-26T09:06:33;26.70;54.80
69328;DHT22;56472;52.114;5.492;2023-06-26T09:09:01;26.70;54.90
69328;DHT22;56472;52.114;5.492;2023-06-26T09:11:29;26.70;54.70
69328;DHT22;56472;52.114;5.492;2023-06-26T09:13:56;26.70;54.20
69328;DHT22;56472;52.114;5.492;2023-06-26T09:16:27;26.70;53.40
69328;DHT22;56472;52.114;5.492;2023-06-26T09:18:55;26.70;52.70
69328;DHT22;56472;52.114;5.492;2023-06-26T09:21:23;26.70;52.80
69328;DHT22;56472;52.114;5.492;2023-06-26T09:23:52;26.70;52.80
69328;DHT22;56472;52.114;5.492;2023-06-26T09:26:21;26.70;52.50
69328;DHT22;56472;52.114;5.492;2023-06-26T09:28:48;26.70;52.30
69328;DHT22;56472;52.114;5.492;2023-06-26T09:31:17;26.70;52.00
69328;DHT22;56472;52.114;5.492;2023-06-26T09:34:04;26.70;51.60
69328;DHT22;56472;52.114;5.492;2023-06-26T09:36:33;26.70;51.50
69328;DHT22;56472;52.114;5.492;2023-06-26T09:39:05;26.70;51.40
69328;DHT22;56472;52.114;5.492;2023-06-26T09:41:35;26.70;51.00
69328;DHT22;56472;52.114;5.492;2023-06-26T09:44:02;26.60;50.90
69328;DHT22;56472;52.114;5.492;2023-06-26T09:46:30;26.60;50.90
69328;DHT22;56472;52.114;5.492;2023-06-26T09:49:09;26.70;51.00
69328;DHT22;56472;52.114;5.492;2023-06-26T09:51:39;26.70;51.10
69328;DHT22;56472;52.114;5.492;2023-06-26T09:54:07;26.70;51.30
69328;DHT22;56472;52.114;5.492;2023-06-26T09:56:34;26.70;51.30
69328;DHT22;56472;52.114;5.492;2023-06-26T09:59:04;26.70;51.10
69328;DHT22;56472;52.114;5.492;2023-06-26T10:01:32;26.70;51.10
69328;DHT22;56472;52.114;5.492;2023-06-26T10:04:00;26.70;51.20
69328;DHT22;56472;52.114;5.492;2023-06-26T10:06:44;26.70;51.30
69328;DHT22;56472;52.114;5.492;2023-06-26T10:09:13;26.80;51.30
69328;DHT22;56472;52.114;5.492;2023-06-26T10:14:13;26.80;51.30
69328;DHT22;56472;52.114;5.492;2023-06-26T10:16:46;26.70;50.00
69328;DHT22;56472;52.114;5.492;2023-06-26T10:19:17;26.70;49.70
69328;DHT22;56472;52.114;5.492;2023-06-26T10:21:46;26.70;49.30
69328;DHT22;56472;52.114;5.492;2023-06-26T10:24:13;26.70;49.40
69328;DHT22;56472;52.114;5.492;2023-06-26T10:26:44;26.70;49.50
69328;DHT22;56472;52.114;5.492;2023-06-26T10:29:12;26.80;49.50
69328;DHT22;56472;52.114;5.492;2023-06-26T10:31:44;26.70;49.40
69328;DHT22;56472;52.114;5.492;2023-06-26T10:34:13;26.70;48.90
69328;DHT22;56472;52.114;5.492;2023-06-26T10:36:41;26.70;48.60
69328;DHT22;56472;52.114;5.492;2023-06-26T10:39:08;26.70;48.20
69328;DHT22;56472;52.114;5.492;2023-06-26T10:41:42;26.70;47.90
69328;DHT22;56472;52.114;5.492;2023-06-26T10:44:26;26.70;47.80
69328;DHT22;56472;52.114;5.492;2023-06-26T10:46:55;26.70;47.90
69328;DHT22;56472;52.114;5.492;2023-06-26T10:49:28;26.70;47.70
69328;DHT22;56472;52.114;5.492;2023-06-26T10:52:00;26.70;47.60
69328;DHT22;56472;52.114;5.492;2023-06-26T10:54:34;26.70;47.40
69328;DHT22;56472;52.114;5.492;2023-06-26T10:57:02;26.70;47.10
69328;DHT22;56472;52.114;5.492;2023-06-26T10:59:30;26.70;47.10
69328;DHT22;56472;52.114;5.492;2023-06-26T11:02:02;26.70;47.20
69328;DHT22;56472;52.114;5.492;2023-06-26T11:04:40;26.70;47.40
69328;DHT22;56472;52.114;5.492;2023-06-26T11:07:20;26.70;47.10
69328;DHT22;56472;52.114;5.492;2023-06-26T11:10:02;26.70;46.60
69328;DHT22;56472;52.114;5.492;2023-06-26T11:15:14;26.70;46.80
69328;DHT22;56472;52.114;5.492;2023-06-26T11:17:43;26.70;46.50
69328;DHT22;56472;52.114;5.492;2023-06-26T11:20:12;26.70;46.40
69328;DHT22;56472;52.114;5.492;2023-06-26T11:22:43;26.70;46.00
69328;DHT22;56472;52.114;5.492;2023-06-26T11:25:11;26.70;45.60
69328;DHT22;56472;52.114;5.492;2023-06-26T11:30:06;26.70;45.40
69328;DHT22;56472;52.114;5.492;2023-06-26T11:32:34;26.70;45.20
69328;DHT22;56472;52.114;5.492;2023-06-26T11:35:01;26.80;45.20
69328;DHT22;56472;52.114;5.492;2023-06-26T11:37:28;26.80;45.10
69328;DHT22;56472;52.114;5.492;2023-06-26T11:39:55;26.80;45.30
69328;DHT22;56472;52.114;5.492;2023-06-26T11:42:23;26.80;45.40
69328;DHT22;56472;52.114;5.492;2023-06-26T11:44:52;26.80;45.10
69328;DHT22;56472;52.114;5.492;2023-06-26T11:47:20;26.80;45.10
69328;DHT22;56472;52.114;5.492;2023-06-26T11:49:49;26.80;45.10
69328;DHT22;56472;52.114;5.492;2023-06-26T11:52:16;26.80;45.30
69328;DHT22;56472;52.114;5.492;2023-06-26T11:54:44;26.80;45.40
69328;DHT22;56472;52.114;5.492;2023-06-26T11:57:16;26.80;45.50
69328;DHT22;56472;52.114;5.492;2023-06-26T11:59:44;26.80;45.70
69328;DHT22;56472;52.114;5.492;2023-06-26T12:02:13;26.80;45.80
69328;DHT22;56472;52.114;5.492;2023-06-26T12:04:42;26.80;45.60
69328;DHT22;56472;52.114;5.492;2023-06-26T12:07:10;26.90;45.60
69328;DHT22;56472;52.114;5.492;2023-06-26T12:09:43;26.90;45.60
69328;DHT22;56472;52.114;5.492;2023-06-26T12:12:12;26.90;45.30
69328;DHT22;56472;52.114;5.492;2023-06-26T12:14:40;26.90;45.10
69328;DHT22;56472;52.114;5.492;2023-06-26T12:17:12;26.90;44.90
69328;DHT22;56472;52.114;5.492;2023-06-26T12:19:44;26.90;44.60
69328;DHT22;56472;52.114;5.492;2023-06-26T12:22:11;26.90;44.50
69328;DHT22;56472;52.114;5.492;2023-06-26T12:24:39;26.90;44.50
69328;DHT22;56472;52.114;5.492;2023-06-26T12:27:11;26.90;44.10
69328;DHT22;56472;52.114;5.492;2023-06-26T12:29:40;26.90;44.00
69328;DHT22;56472;52.114;5.492;2023-06-26T12:32:11;26.90;44.10
69328;DHT22;56472;52.114;5.492;2023-06-26T12:34:39;27.00;44.10
69328;DHT22;56472;52.114;5.492;2023-06-26T12:37:11;26.90;43.80
69328;DHT22;56472;52.114;5.492;2023-06-26T12:39:52;26.90;43.30
69328;DHT22;56472;52.114;5.492;2023-06-26T12:42:24;26.90;42.90
69328;DHT22;56472;52.114;5.492;2023-06-26T12:44:52;27.00;42.70
69328;DHT22;56472;52.114;5.492;2023-06-26T12:47:25;26.90;42.60
69328;DHT22;56472;52.114;5.492;2023-06-26T12:49:52;27.00;42.70
69328;DHT22;56472;52.114;5.492;2023-06-26T12:52:20;27.00;42.90
69328;DHT22;56472;52.114;5.492;2023-06-26T12:54:52;26.90;42.90
69328;DHT22;56472;52.114;5.492;2023-06-26T12:57:19;26.90;42.70
69328;DHT22;56472;52.114;5.492;2023-06-26T12:59:46;27.00;42.80
69328;DHT22;56472;52.114;5.492;2023-06-26T13:02:13;27.00;42.60
69328;DHT22;56472;52.114;5.492;2023-06-26T13:04:41;27.00;43.50
69328;DHT22;56472;52.114;5.492;2023-06-26T13:07:08;27.00;42.60
69328;DHT22;56472;52.114;5.492;2023-06-26T13:09:36;27.00;43.50
69328;DHT22;56472;52.114;5.492;2023-06-26T13:12:05;27.00;42.40
69328;DHT22;56472;52.114;5.492;2023-06-26T13:14:33;27.10;42.30
69328;DHT22;56472;52.114;5.492;2023-06-26T13:17:03;27.10;42.40
69328;DHT22;56472;52.114;5.492;2023-06-26T13:19:33;27.10;42.40
69328;DHT22;56472;52.114;5.492;2023-06-26T13:22:00;27.10;42.50
69328;DHT22;56472;52.114;5.492;2023-06-26T13:24:27;27.10;42.40
69328;DHT22;56472;52.114;5.492;2023-06-26T13:26:54;27.10;42.30
69328;DHT22;56472;52.114;5.492;2023-06-26T13:29:21;27.10;42.30
69328;DHT22;56472;52.114;5.492;2023-06-26T13:31:49;27.20;42.30
69328;DHT22;56472;52.114;5.492;2023-06-26T13:34:21;27.20;42.30
69328;DHT22;56472;52.114;5.492;2023-06-26T13:36:49;27.20;42.30
69328;DHT22;56472;52.114;5.492;2023-06-26T13:39:16;27.20;42.40
69328;DHT22;56472;52.114;5.492;2023-06-26T13:41:43;27.20;42.40
69328;DHT22;56472;52.114;5.492;2023-06-26T13:44:09;27.20;42.40
69328;DHT22;56472;52.114;5.492;2023-06-26T13:46:57;27.20;42.20
69328;DHT22;56472;52.114;5.492;2023-06-26T13:49:24;27.20;42.00
69328;DHT22;56472;52.114;5.492;2023-06-26T13:51:51;27.20;41.90
69328;DHT22;56472;52.114;5.492;2023-06-26T13:54:18;27.20;41.80
69328;DHT22;56472;52.114;5.492;2023-06-26T13:56:45;27.20;41.70
69328;DHT22;56472;52.114;5.492;2023-06-26T13:59:12;27.20;41.70
69328;DHT22;56472;52.114;5.492;2023-06-26T14:01:39;27.20;41.60
69328;DHT22;56472;52.114;5.492;2023-06-26T14:04:09;27.20;41.50
69328;DHT22;56472;52.114;5.492;2023-06-26T14:06:36;27.20;41.30
69328;DHT22;56472;52.114;5.492;2023-06-26T14:09:03;27.30;41.50
69328;DHT22;56472;52.114;5.492;2023-06-26T14:11:31;27.20;41.60
69328;DHT22;56472;52.114;5.492;2023-06-26T14:13:59;27.20;41.60
69328;DHT22;56472;52.114;5.492;2023-06-26T14:16:26;27.20;41.60
69328;DHT22;56472;52.114;5.492;2023-06-26T14:18:56;27.20;41.50
69328;DHT22;56472;52.114;5.492;2023-06-26T14:21:23;27.10;41.40
69328;DHT22;56472;52.114;5.492;2023-06-26T14:23:50;27.10;41.40
69328;DHT22;56472;52.114;5.492;2023-06-26T14:26:17;27.10;41.30
69328;DHT22;56472;52.114;5.492;2023-06-26T14:28:44;27.10;41.10
69328;DHT22;56472;52.114;5.492;2023-06-26T14:31:11;27.10;41.20
69328;DHT22;56472;52.114;5.492;2023-06-26T14:33:39;27.20;41.40
69328;DHT22;56472;52.114;5.492;2023-06-26T14:36:06;27.20;41.30
69328;DHT22;56472;52.114;5.492;2023-06-26T14:38:33;27.20;41.00
69328;DHT22;56472;52.114;5.492;2023-06-26T14:41:00;27.20;41.10
69328;DHT22;56472;52.114;5.492;2023-06-26T14:43:27;27.20;41.10
69328;DHT22;56472;52.114;5.492;2023-06-26T14:45:54;27.20;40.90
69328;DHT22;56472;52.114;5.492;2023-06-26T14:48:22;27.20;40.80
69328;DHT22;56472;52.114;5.492;2023-06-26T14:50:49;27.20;40.60
69328;DHT22;56472;52.114;5.492;2023-06-26T14:53:16;27.20;40.50
69328;DHT22;56472;52.114;5.492;2023-06-26T14:55:43;27.30;40.80
69328;DHT22;56472;52.114;5.492;2023-06-26T14:58:10;27.30;40.90
69328;DHT22;56472;52.114;5.492;2023-06-26T15:00:38;27.30;40.90
69328;DHT22;56472;52.114;5.492;2023-06-26T15:03:05;27.30;40.80
69328;DHT22;56472;52.114;5.492;2023-06-26T15:05:34;27.30;40.70
69328;DHT22;56472;52.114;5.492;2023-06-26T15:08:01;27.30;40.50
69328;DHT22;56472;52.114;5.492;2023-06-26T15:10:28;27.40;40.50
69328;DHT22;56472;52.114;5.492;2023-06-26T15:12:58;27.40;40.30
69328;DHT22;56472;52.114;5.492;2023-06-26T15:15:25;27.40;40.10
69328;DHT22;56472;52.114;5.492;2023-06-26T15:17:52;27.50;40.20
69328;DHT22;56472;52.114;5.492;2023-06-26T15:20:19;27.50;40.30
69328;DHT22;56472;52.114;5.492;2023-06-26T15:22:46;27.50;40.40
69328;DHT22;56472;52.114;5.492;2023-06-26T15:25:13;27.60;40.60
69328;DHT22;56472;52.114;5.492;2023-06-26T15:27:40;27.60;40.70
69328;DHT22;56472;52.114;5.492;2023-06-26T15:30:07;27.70;40.70
69328;DHT22;56472;52.114;5.492;2023-06-26T15:32:35;27.70;40.60
69328;DHT22;56472;52.114;5.492;2023-06-26T15:35:02;27.80;40.80
69328;DHT22;56472;52.114;5.492;2023-06-26T15:37:29;27.70;40.70
69328;DHT22;56472;52.114;5.492;2023-06-26T15:39:56;27.80;40.60
69328;DHT22;56472;52.114;5.492;2023-06-26T15:42:27;27.80;40.40
69328;DHT22;56472;52.114;5.492;2023-06-26T15:44:55;27.90;40.30
69328;DHT22;56472;52.114;5.492;2023-06-26T15:47:22;27.90;40.30
69328;DHT22;56472;52.114;5.492;2023-06-26T15:49:49;27.80;40.40
69328;DHT22;56472;52.114;5.492;2023-06-26T15:52:16;27.80;40.60
69328;DHT22;56472;52.114;5.492;2023-06-26T15:54:43;27.90;40.80